Pulau Sudong Military Airstrip

SG-0002 · Singapore

METAR history SG-0002 · Pulau Sudong Military Airstrip

Below you see METARs of the last few days. Select a year to browse through older METARs, from the year 2007 onwards.

May 19, 2024

Time Code Weather Temp. Visibility Ceiling Wind METAR/SPECI
02:00
V
28 °C 10 km+ 30,000 ft 140° 140° 5 kt METAR WSAP 181800Z 14005KT 9999 FEW018 BKN300 28/25 Q1008
01:00
V
28 °C 10 km+ 30,000 ft 140° 140° 3 kt METAR WSAP 181700Z 14003KT 9999 FEW018 BKN300 28/25 Q1009
00:00
V
28 °C 10 km+ 28,000 ft 120° 120° 4 kt METAR WSAP 181600Z 12004KT 9999 FEW018 BKN280 28/25 Q1009

May 18, 2024

Time Code Weather Temp. Visibility Ceiling Wind METAR/SPECI
23:00
V
28 °C 10 km+ 28,000 ft 100° 100° 3 kt METAR WSAP 181500Z 10003KT 9999 FEW018 BKN280 28/25 Q1009
22:00
V
28 °C 10 km+ 28,000 ft 130° 130° 3 kt METAR WSAP 181400Z 13003KT 9999 FEW018 BKN280 28/24 Q1009
21:00
V
29 °C 10 km+ 28,000 ft 150° 150° 4 kt METAR WSAP 181300Z 15004KT 9999 FEW018 BKN280 29/24 Q1008
20:00
V
29 °C 10 km+ 28,000 ft 120° 120° 3 kt METAR WSAP 181200Z 12003KT 9999 FEW016 BKN280 29/25 Q1007
19:00
V
29 °C 10 km+ 27,000 ft 100° 100° 2 kt METAR WSAP 181100Z 10002KT 9999 FEW016 FEW018TCU BKN270 29/25 Q1007
18:00
V
29 °C 10 km+ 27,000 ft 110° 110° 2 kt METAR WSAP 181000Z 11002KT 9999 FEW016 FEW018TCU BKN270 29/24 Q1007
17:00
V
29 °C 10 km+ - 170° 170° 3 kt METAR WSAP 180900Z 17003KT 9999 -RA FEW014 FEW017CB FEW018TCU SCT160 29/25 Q1007 RETS
16:00
V
30 °C 10 km+ - 130° 130° 4 kt METAR WSAP 180800Z 13004KT 9999 VCTS FEW017CB FEW018TCU SCT150 30/23 Q1007
15:00
V
29 °C 10 km+ - 090° 090° 7 kt METAR WSAP 180700Z 09007KT 9999 VCTS FEW017CB FEW018TCU SCT150 29/24 Q1007
14:00
V
32 °C 10 km+ - 130° 130° 6 kt METAR WSAP 180600Z 13006KT 9999 VCTS FEW017CB SCT018TCU 32/22 Q1008
13:38
V
33 °C 10 km+ 30,000 ft 100° 100° 7 kt METAR WSAP 180538Z 10007KT 9999 TS FEW017CB FEW018TCU BKN300 33/22 Q1008
13:00
V
32 °C 10 km+ 30,000 ft 130° 130° 5 kt METAR WSAP 180500Z 13005KT 9999 FEW018TCU BKN300 32/24 Q1008
12:00
V
31 °C 10 km+ 30,000 ft 110° 110° 5 kt METAR WSAP 180400Z 11005KT 9999 SCT018TCU BKN300 31/22 Q1009
11:00
V
33 °C 10 km+ 30,000 ft 140° 140° 6 kt METAR WSAP 180300Z 14006KT 9999 FEW018 FEW020TCU BKN300 33/24 Q1010
10:00
V
31 °C 10 km+ 30,000 ft 120° 120° 5 kt METAR WSAP 180200Z 12005KT 9999 FEW018 FEW020TCU BKN300 31/25 Q1010
09:00
V
30 °C 10 km+ 30,000 ft 140° 140° 5 kt METAR WSAP 180100Z 14005KT 9999 FEW018 BKN300 30/25 Q1010
08:00
V
29 °C 10 km+ 30,000 ft 030° 030° 1 kt METAR WSAP 180000Z 03001KT 9999 FEW016 BKN300 29/26 Q1009
07:00
V
27 °C 10 km+ 30,000 ft 120° 120° 1 kt METAR WSAP 172300Z 12001KT 9999 SCT016 BKN300 27/25 Q1009
06:00
V
27 °C 10 km+ 30,000 ft 030° 030° 1 kt METAR WSAP 172200Z 03001KT 9999 FEW016 BKN300 27/25 Q1008
05:00
V
27 °C 10 km+ 30,000 ft 060° 060° 1 kt METAR WSAP 172100Z 06001KT 9999 FEW016 BKN300 27/25 Q1007
04:00
V
27 °C 10 km+ 30,000 ft 050° 050° 1 kt METAR WSAP 172000Z 05001KT 9999 FEW016 BKN300 27/25 Q1008
03:00
V
28 °C 10 km+ 30,000 ft 300° 300° 1 kt METAR WSAP 171900Z 30001KT 9999 FEW016 BKN300 28/25 Q1008
02:00
V
28 °C 10 km+ 30,000 ft 050° 050° 1 kt METAR WSAP 171800Z 05001KT 9999 FEW016 BKN300 28/25 Q1009
01:00
V
29 °C 10 km+ 30,000 ft 120° 120° 1 kt METAR WSAP 171700Z 12001KT 9999 FEW016 BKN300 29/25 Q1010
00:00
V
28 °C 10 km+ 30,000 ft 070° 070° 1 kt METAR WSAP 171600Z 07001KT 9999 FEW016 BKN300 28/26 Q1010

May 17, 2024

Time Code Weather Temp. Visibility Ceiling Wind METAR/SPECI
23:00
V
28 °C 10 km+ 30,000 ft 090° 090° 2 kt METAR WSAP 171500Z 09002KT 9999 FEW016 BKN300 28/25 Q1010
22:00
V
29 °C 10 km+ 30,000 ft 140° 140° 4 kt METAR WSAP 171400Z 14004KT 9999 FEW015 BKN300 29/25 Q1010
21:00
V
30 °C 10 km+ 30,000 ft 150° 150° 4 kt METAR WSAP 171300Z 15004KT 9999 FEW016 BKN300 30/25 Q1009
20:00
V
30 °C 10 km+ 30,000 ft 130° 130° 4 kt METAR WSAP 171200Z 13004KT 9999 FEW018TCU BKN300 30/25 Q1008
19:00
V
30 °C 10 km+ 30,000 ft 120° 120° 5 kt METAR WSAP 171100Z 12005KT 9999 FEW018TCU BKN300 30/24 Q1007
18:00
V
31 °C 10 km+ 30,000 ft 130° 130° 5 kt METAR WSAP 171000Z 13005KT 9999 FEW018 FEW020TCU BKN300 31/24 Q1007
17:00
V
32 °C 10 km+ 30,000 ft 130° 130° 6 kt METAR WSAP 170900Z 13006KT 9999 FEW018 FEW020TCU BKN300 32/24 Q1007
16:00
V
32 °C 10 km+ 30,000 ft 150° 150° 5 kt METAR WSAP 170800Z 15005KT 9999 FEW018 FEW020TCU SCT160 BKN300 32/25 Q1007
15:00
V
29 °C 9 km - 080° 080° 2 kt METAR WSAP 170700Z 08002KT 9000 FEW016 FEW017TCU FEW018CB SCT160 29/25 Q1008 RETS
14:32
M
27 °C 7 km - 200° 200° 4 kt METAR WSAP 170632Z 20004KT 7000 -TSRA FEW016 FEW017TCU FEW018CB SCT160 27/24 Q1008 RESHRA
14:11
M
27 °C 5 km 16,000 ft 130° 130° 13 kt METAR WSAP 170611Z 13013KT 5000 1500E TSRA FEW015 FEW017TCU FEW018CB BKN160 27/25 Q1009
14:00
V
29 °C 8 km - 090° 090° 8 kt METAR WSAP 170600Z 09008KT 8000 -SHRA FEW016 FEW017TCU FEW020CB SCT160 29/25 Q1009
13:00
V
32 °C 10 km+ 30,000 ft 140° 140° 6 kt METAR WSAP 170500Z 14006KT 9999 FEW020 FEW022TCU SCT160 BKN300 32/24 Q1009
12:00
V
32 °C 10 km+ 30,000 ft 160° 160° 6 kt METAR WSAP 170400Z 16006KT 9999 FEW020 FEW022TCU SCT160 BKN300 32/24 Q1010
11:00
V
32 °C 10 km+ 30,000 ft 160° 160° 6 kt METAR WSAP 170300Z 16006KT 9999 FEW018 FEW020TCU BKN300 32/24 Q1011
10:00
V
31 °C 10 km+ 30,000 ft 130° 130° 6 kt METAR WSAP 170200Z 13006KT 9999 FEW018 FEW020TCU SCT160 BKN300 31/24 Q1011
09:00
V
30 °C 9 km 30,000 ft 210° 210° 2 kt METAR WSAP 170100Z 21002KT 9000 FEW018 SCT160 BKN300 30/25 Q1010
08:00
V
27 °C 8 km 30,000 ft 120° 120° 1 kt METAR WSAP 170000Z 12001KT 8000 FEW016 BKN300 27/25 Q1010
07:00
V
26 °C 8 km 30,000 ft 070° 070° 1 kt METAR WSAP 162300Z 07001KT 8000 FEW016 BKN300 26/25 Q1009
06:00
V
26 °C 10 km+ 30,000 ft 190° 190° 1 kt METAR WSAP 162200Z 19001KT 9999 FEW016 BKN300 26/25 Q1009
05:00
V
26 °C 10 km+ 30,000 ft 320° 320° 1 kt METAR WSAP 162100Z 32001KT 9999 FEW018 BKN300 26/25 Q1009
04:00
V
26 °C 10 km+ 30,000 ft 290° 290° 1 kt METAR WSAP 162000Z 29001KT 9999 FEW018 BKN300 26/25 Q1009
03:00
V
27 °C 10 km+ 30,000 ft 210° 210° 1 kt METAR WSAP 161900Z 21001KT 9999 FEW018 SCT150 BKN300 27/25 Q1010
02:00
V
27 °C 10 km+ 30,000 ft 270° 270° 1 kt METAR WSAP 161800Z 27001KT 9999 FEW018 BKN300 27/25 Q1010
01:00
V
27 °C 10 km+ 30,000 ft 020° 020° 1 kt METAR WSAP 161700Z 02001KT 9999 FEW018CB BKN300 27/26 Q1011
00:00
V
27 °C 10 km+ - 360° 360° 1 kt METAR WSAP 161600Z 36001KT 9999 FEW016 FEW018CB SCT160 27/26 Q1011

May 16, 2024

Time Code Weather Temp. Visibility Ceiling Wind METAR/SPECI
23:00
V
27 °C 10 km+ 30,000 ft 360° 360° 1 kt METAR WSAP 161500Z 36001KT 9999 FEW016 FEW018CB BKN300 27/26 Q1011
22:00
V
27 °C 10 km+ 28,000 ft 080° 080° 1 kt METAR WSAP 161400Z 08001KT 9999 FEW016 BKN280 27/26 Q1011
21:00
V
27 °C 10 km+ 27,000 ft 070° 070° 1 kt METAR WSAP 161300Z 07001KT 9999 FEW015 BKN270 27/25 Q1010
20:00
V
27 °C 10 km+ 16,000 ft 030° 030° 2 kt METAR WSAP 161200Z 03002KT 9999 -RA FEW015 BKN160 27/26 Q1009
19:00
V
27 °C 10 km+ 16,000 ft 360° 360° 0 kt METAR WSAP 161100Z 00000KT 9999 FEW015 BKN160 27/25 Q1009
18:00
V
28 °C 10 km+ 15,000 ft 060° 060° 3 kt METAR WSAP 161000Z 06003KT 9999 FEW010 FEW015TCU SCT050 BKN150 28/25 Q1008
17:00
V
27 °C 10 km+ 15,000 ft 160° 160° 4 kt METAR WSAP 160900Z 16004KT 9999 -RA FEW015 BKN150 27/24 Q1008
16:00
V
26 °C 10 km+ 15,000 ft 240° 240° 2 kt METAR WSAP 160800Z 24002KT 9999 FEW012 FEW016TCU BKN150 26/24 Q1009 RETS
15:15
M
26 °C 6 km - 170° 170° 4 kt METAR WSAP 160715Z 17004KT 6000 -TSRA FEW010 FEW014TCU FEW015CB SCT150 26/24 Q1009
15:00
I
25 °C 3 km - 170° 170° 10 kt METAR WSAP 160700Z 17010KT 3000 -TSRA FEW010 FEW014TCU FEW015CB SCT150 25/24 Q1010 RESHRA
14:37
L
26 °C 1 km - 160° 160° 13 kt METAR WSAP 160637Z 16013KT 1000 +TSRA FEW010 SCT014TCU FEW015CB 26/25 Q1010
14:24
I
27 °C 2 km - 170° 170° 13 kt METAR WSAP 160624Z 17013KT 2000 +TSRA FEW010 SCT014TCU FEW015CB 27/25 Q1010
14:12
M
29 °C 6 km - 170° 170° 11 kt METAR WSAP 160612Z 17011KT 6000 -TSRA FEW010 SCT015TCU FEW016CB 29/25 Q1010
14:00
M
29 °C 7 km - 130° 130° 7 kt METAR WSAP 160600Z 13007KT 7000 -SHRA FEW010 SCT015TCU FEW016CB 29/25 Q1010
Report a change